Timothy Mcallister — WDC8133 — position and weather

sailwx.info

Track history (hours):
 
Tides and Currents Weather Stations Pressure Air Temp Water Temp Dewpoint Dewpoint Depression Visibility Wind Speed Wind Dir Waves Ship Positions

Timothy Mcallister

Owner: McAllister Towing, Staten Island, NY. More information available from US FCC via Universal Licensing System and Coast Guard Vessel Documentation Center.

Last reported at 2018-May-20 11:31 UTC. Time now 2018-May-20 11:38 UTC.
Position N 39°15' W 076°34'.

Length 34 m; draft 3.8 m.

Type: Towing. MMSI: 367082130.

Date/timePositionNaut miles runAvg speedWind from/ knotsBaromVisibWave heightAir tempDewpointWater temp
2018-May-20 11:31N 39°15' W 076°34'1 1.5
2018-May-20 11:01N 39°15' W 076°35'0 0.9
2018-May-20 10:28N 39°15' W 076°34'2 3.3
2018-May-20 10:00N 39°15' W 076°32'0 0.0
2018-May-20 09:30N 39°15' W 076°32'0 0.0
2018-May-20 09:00N 39°15' W 076°32'0 0.0
2018-May-20 08:31N 39°15' W 076°32'0 0.0
2018-May-20 08:00N 39°15' W 076°32'0 0.0
2018-May-20 07:31N 39°15' W 076°32'0 0.0
2018-May-20 07:00N 39°15' W 076°32'0 0.0
2018-May-20 06:31N 39°15' W 076°32'0 0.0
2018-May-20 06:00N 39°15' W 076°32'0 0.0
2018-May-20 05:30N 39°15' W 076°32'0 0.0
2018-May-20 05:01N 39°15' W 076°32'0 0.0
2018-May-20 04:31N 39°15' W 076°32'0 0.0
2018-May-20 04:01N 39°15' W 076°32'0 0.5
2018-May-20 03:30N 39°15' W 076°32'4 7.9
2018-May-20 03:00N 39°12' W 076°29'1 2.0
2018-May-20 02:30N 39°13' W 076°29'0 0.0
2018-May-20 01:29N 39°13' W 076°29'0 0.0
2018-May-20 01:00N 39°13' W 076°29'0 0.0
2018-May-20 00:24N 39°13' W 076°29'2 4.2
2018-May-20 00:00N 39°12' W 076°31'2 4.4
2018-May-19 23:30N 39°14' W 076°32'1 2.0
2018-May-19 23:00N 39°14' W 076°32'1 1.6
2018-May-19 22:30N 39°13' W 076°32'0 0.0
2018-May-19 22:00N 39°13' W 076°32'0 0.0
2018-May-19 21:30N 39°13' W 076°32'0 0.1
2018-May-19 20:59N 39°13' W 076°32'0 0.1
2018-May-19 20:30N 39°13' W 076°32'2 3.8
2018-May-19 20:00N 39°13' W 076°35'0 0.4
2018-May-19 19:30N 39°13' W 076°35'1 1.8
2018-May-19 19:00N 39°13' W 076°34'1 2.3
2018-May-19 18:28N 39°14' W 076°33'1 1.2
2018-May-19 18:00N 39°15' W 076°32'0 0.0
2018-May-19 17:30N 39°15' W 076°32'0 0.0
2018-May-19 17:01N 39°15' W 076°32'0 0.0
2018-May-19 16:31N 39°15' W 076°32'0 0.0
2018-May-19 16:00N 39°15' W 076°32'0 0.0
2018-May-19 15:30N 39°15' W 076°32'0 0.7
2018-May-19 15:01N 39°14' W 076°32'1 2.9
2018-May-19 14:31N 39°13' W 076°32'4 7.0
2018-May-19 14:01N 39°16' W 076°35'0 0.8
2018-May-19 13:30N 39°16' W 076°35'0 0.0
2018-May-19 13:00N 39°16' W 076°35'0 0.0
2018-May-19 12:30N 39°16' W 076°35'0 0.0
2018-May-19 12:00N 39°16' W 076°35'0 0.0
2018-May-19 11:30N 39°16' W 076°35'2 3.6
2018-May-19 11:00N 39°15' W 076°33'0 0.1
2018-May-19 10:30N 39°15' W 076°33'1 2.0
2018-May-19 10:00N 39°14' W 076°33'1 2.7
2018-May-19 09:30N 39°13' W 076°32'2 4.0
2018-May-19 09:00N 39°15' W 076°33'1 1.6
2018-May-19 08:30N 39°15' W 076°34'0 0.0
2018-May-19 08:00N 39°15' W 076°34'0 0.0
2018-May-19 07:30N 39°15' W 076°34'1 1.3
2018-May-19 07:00N 39°15' W 076°35'0 0.5
2018-May-19 06:30N 39°15' W 076°35'0 0.1
2018-May-19 06:00N 39°15' W 076°35'0 0.1
2018-May-19 05:30N 39°15' W 076°35'0 0.1
2018-May-19 04:55N 39°15' W 076°35'0 0.0
2018-May-19 04:30N 39°15' W 076°35'0 0.0
2018-May-19 03:59N 39°15' W 076°35'0 0.0
2018-May-19 03:30N 39°15' W 076°35'0 0.0
2018-May-19 03:00N 39°15' W 076°35'0 0.1
2018-May-19 02:30N 39°15' W 076°35'1 2.2
2018-May-19 02:00N 39°16' W 076°35'0 0.0
2018-May-19 01:30N 39°16' W 076°35'0 0.0
2018-May-19 01:00N 39°16' W 076°35'0 0.0
2018-May-19 00:30N 39°16' W 076°35'0 0.0
2018-May-19 00:00N 39°16' W 076°35'0 0.0
2018-May-18 23:30N 39°16' W 076°35'0 0.0
2018-May-18 23:00N 39°16' W 076°35'0 0.0
2018-May-18 22:30N 39°16' W 076°35'0 0.0
2018-May-18 22:00N 39°16' W 076°35'0 0.6
2018-May-18 21:30N 39°16' W 076°35'1 2.4
2018-May-18 21:00N 39°15' W 076°33'0 0.0
2018-May-18 20:30N 39°15' W 076°33'0 0.8
2018-May-18 20:01N 39°15' W 076°33'2 4.0
2018-May-18 19:29N 39°13' W 076°35'0 0.4
2018-May-18 19:00N 39°13' W 076°34'2 4.1
2018-May-18 18:31N 39°13' W 076°32'1 1.0
2018-May-18 18:01N 39°14' W 076°32'2 3.4
2018-May-18 17:28N 39°15' W 076°33'2 3.6
2018-May-18 17:00N 39°16' W 076°35'0 0.1
2018-May-18 16:30N 39°16' W 076°35'0 0.0
2018-May-18 16:00N 39°16' W 076°35'0 0.0
2018-May-18 15:30N 39°16' W 076°35'0 0.0
2018-May-18 15:00N 39°16' W 076°35'0 0.0
2018-May-18 14:30N 39°16' W 076°35'0 0.0
2018-May-18 14:00N 39°16' W 076°35'0 0.0
2018-May-18 13:30N 39°16' W 076°35'0 0.0
2018-May-18 13:00N 39°16' W 076°35'0 0.0
2018-May-18 12:30N 39°16' W 076°35'0 0.0
2018-May-18 12:00N 39°16' W 076°35'0 0.0
2018-May-18 11:30N 39°16' W 076°35'0 0.3
2018-May-18 11:00N 39°16' W 076°35'2 4.9
2018-May-18 10:30N 39°15' W 076°32'0 0.9
2018-May-18 10:00N 39°14' W 076°32'1 1.4
2018-May-18 09:30N 39°13' W 076°32'2 4.9
2018-May-18 09:00N 39°15' W 076°34'0 0.0
2018-May-18 08:30N 39°15' W 076°34'1 1.2
2018-May-18 08:00N 39°15' W 076°34'0 0.3
2018-May-18 07:30N 39°15' W 076°34'0 0.5
2018-May-18 07:00N 39°15' W 076°34'1 2.4
2018-May-18 06:31N 39°14' W 076°33'2 3.3
2018-May-18 06:00N 39°13' W 076°32'0 0.6
2018-May-18 05:30N 39°13' W 076°32'4 7.6
2018-May-18 05:00N 39°16' W 076°35'0 0.0
2018-May-18 04:30N 39°16' W 076°35'0 0.0
2018-May-18 04:00N 39°16' W 076°35'0 0.0
2018-May-18 03:30N 39°16' W 076°35'0 0.0
2018-May-18 03:00N 39°16' W 076°35'0 0.0
2018-May-18 02:30N 39°16' W 076°35'0 0.0
2018-May-18 02:00N 39°16' W 076°35'0 0.0
2018-May-18 01:30N 39°16' W 076°35'0 0.0
2018-May-18 01:00N 39°16' W 076°35'0 0.0
2018-May-18 00:30N 39°16' W 076°35'0 0.0
2018-May-18 00:00N 39°16' W 076°35'0 0.0
2018-May-17 23:30N 39°16' W 076°35'0 0.0
2018-May-17 23:00N 39°16' W 076°35'0 0.0
2018-May-17 22:30N 39°16' W 076°35'0 0.0
2018-May-17 22:00N 39°16' W 076°35'2 4.4
2018-May-17 21:30N 39°15' W 076°33'1 1.8
2018-May-17 21:00N 39°14' W 076°32'1 2.0
2018-May-17 20:30N 39°14' W 076°32'2 3.7
2018-May-17 20:00N 39°15' W 076°34'1 2.7
2018-May-17 19:30N 39°16' W 076°35'0 0.0
2018-May-17 19:00N 39°16' W 076°35'0 0.0
2018-May-17 18:30N 39°16' W 076°35'0 0.0
2018-May-17 18:00N 39°16' W 076°35'0 0.0
2018-May-17 17:30N 39°16' W 076°35'0 0.0
2018-May-17 17:00N 39°16' W 076°35'0 0.0
2018-May-17 16:30N 39°16' W 076°35'0 0.0
2018-May-17 16:00N 39°16' W 076°35'1 1.1
2018-May-17 15:30N 39°16' W 076°34'2 4.3
2018-May-17 15:00N 39°14' W 076°34'0 0.0
2018-May-17 14:24N 39°14' W 076°34'0 0.0
2018-May-17 13:59N 39°14' W 076°34'0 0.0
2018-May-17 13:30N 39°14' W 076°34'0 0.0
2018-May-17 13:00N 39°14' W 076°34'2 4.1
2018-May-17 12:30N 39°16' W 076°34'1 1.4
2018-May-17 12:00N 39°16' W 076°35'0 0.0
2018-May-17 11:30N 39°16' W 076°35'0 0.0
2018-May-17 11:00N 39°16' W 076°35'0 0.0
2018-May-17 10:30N 39°16' W 076°35'0 0.0
2018-May-17 10:00N 39°16' W 076°35'0 0.0
2018-May-17 09:30N 39°16' W 076°35'0 0.0
2018-May-17 09:00N 39°16' W 076°35'0 0.0
2018-May-17 08:30N 39°16' W 076°35'0 0.0
2018-May-17 08:00N 39°16' W 076°35'0 0.0
2018-May-17 07:30N 39°16' W 076°35'0 0.0
2018-May-17 07:01N 39°16' W 076°35'0 0.0
2018-May-17 06:31N 39°16' W 076°35'0 0.0
2018-May-17 06:00N 39°16' W 076°35'0 0.0
2018-May-17 05:31N 39°16' W 076°35'0 0.0
2018-May-17 05:00N 39°16' W 076°35'0 0.0
2018-May-17 04:31N 39°16' W 076°35'0 0.0
2018-May-17 04:01N 39°16' W 076°35'0 0.0
2018-May-17 03:30N 39°16' W 076°35'0 0.0
2018-May-17 03:00N 39°16' W 076°35'0 0.0
2018-May-17 02:30N 39°16' W 076°35'0 0.0
2018-May-17 02:00N 39°16' W 076°35'0 0.0
2018-May-17 01:30N 39°16' W 076°35'0 0.0
2018-May-17 01:00N 39°16' W 076°35'0 0.0
2018-May-17 00:30N 39°16' W 076°35'0 0.0
2018-May-17 00:01N 39°16' W 076°35'2 3.8
2018-May-16 23:31N 39°15' W 076°33'3 5.4
2018-May-16 22:56N 39°13' W 076°30'0 0.3
2018-May-16 22:10N 39°13' W 076°30'1 6.9
2018-May-16 22:00N 39°13' W 076°32'4 8.1
2018-May-16 21:30N 39°16' W 076°35'0 0.0
2018-May-16 21:00N 39°16' W 076°35'0 0.0
2018-May-16 20:30N 39°16' W 076°35'0 0.0
2018-May-16 20:00N 39°16' W 076°35'0 0.0
2018-May-16 19:30N 39°16' W 076°35'0 0.0
2018-May-16 19:01N 39°16' W 076°35'0 0.0
2018-May-16 18:31N 39°16' W 076°35'0 0.0
2018-May-16 18:00N 39°16' W 076°35'0 0.0
2018-May-16 17:31N 39°16' W 076°35'0 0.0
2018-May-16 17:01N 39°16' W 076°35'0 0.0
2018-May-16 16:30N 39°16' W 076°35'0 0.0
2018-May-16 16:00N 39°16' W 076°35'0 0.0
2018-May-16 15:31N 39°16' W 076°35'0 0.0
2018-May-16 15:01N 39°16' W 076°35'0 0.0
2018-May-16 14:31N 39°16' W 076°35'0 0.0
2018-May-16 14:00N 39°16' W 076°35'0 0.0
2018-May-16 13:30N 39°16' W 076°35'0 0.0
2018-May-16 13:00N 39°16' W 076°35'0 0.0
2018-May-16 12:30N 39°16' W 076°35'0 0.0
2018-May-16 12:00N 39°16' W 076°35'0 0.0
2018-May-16 11:30N 39°16' W 076°35'0 0.0
2018-May-16 11:00N 39°16' W 076°35'1 1.6
2018-May-16 10:31N 39°15' W 076°34'3 5.4
2018-May-16 09:58N 39°13' W 076°35'0 0.7
2018-May-16 09:30N 39°13' W 076°35'2 4.4
2018-May-16 09:00N 39°13' W 076°32'4 7.3
2018-May-16 08:31N 39°16' W 076°35'0 0.0
2018-May-16 08:00N 39°16' W 076°35'0 0.0
2018-May-16 07:30N 39°16' W 076°35'0 0.3
2018-May-16 07:00N 39°16' W 076°35'0 0.3
2018-May-16 06:30N 39°16' W 076°35'0 0.0
2018-May-16 06:00N 39°16' W 076°35'0 0.0
2018-May-16 05:30N 39°16' W 076°35'0 0.0
2018-May-16 05:00N 39°16' W 076°35'0 0.0
2018-May-16 04:29N 39°16' W 076°35'0 0.0
2018-May-16 04:01N 39°16' W 076°35'0 0.0
2018-May-16 03:31N 39°16' W 076°35'0 0.0
2018-May-16 03:01N 39°16' W 076°35'0 0.0
2018-May-16 02:31N 39°16' W 076°35'0 0.0
2018-May-16 02:01N 39°16' W 076°35'0 0.0
2018-May-16 01:30N 39°16' W 076°35'0 0.0
2018-May-16 01:00N 39°16' W 076°35'0 0.0
2018-May-16 00:30N 39°16' W 076°35'0 0.0
2018-May-16 00:00N 39°16' W 076°35'0 0.0
2018-May-15 23:30N 39°16' W 076°35'0 0.0
2018-May-15 23:00N 39°16' W 076°35'0 0.0
2018-May-15 22:30N 39°16' W 076°35'0 0.0
2018-May-15 22:00N 39°16' W 076°35'0 0.9
2018-May-15 21:31N 39°16' W 076°35'0 0.2
2018-May-15 21:01N 39°17' W 076°35'2 3.5
2018-May-15 20:31N 39°15' W 076°34'1 1.7
2018-May-15 19:57N 39°15' W 076°33'2 4.7
2018-May-15 19:30N 39°16' W 076°35'0 0.0
2018-May-15 19:00N 39°16' W 076°35'0 0.0
2018-May-15 18:31N 39°16' W 076°35'0 0.0
2018-May-15 18:00N 39°16' W 076°35'0 0.0
2018-May-15 17:31N 39°16' W 076°35'0 0.0
2018-May-15 17:00N 39°16' W 076°35'0 0.0
2018-May-15 16:30N 39°16' W 076°35'1 2.2
2018-May-15 15:58N 39°15' W 076°35'0 0.8
2018-May-15 15:30N 39°15' W 076°34'2 2.8
2018-May-15 14:56N 39°15' W 076°32'1 1.3
2018-May-15 14:30N 39°15' W 076°32'2 4.6
2018-May-15 14:00N 39°16' W 076°35'0 0.2
2018-May-15 13:30N 39°16' W 076°35'0 0.0
2018-May-15 13:00N 39°16' W 076°35'0 0.0
2018-May-15 12:30N 39°16' W 076°35'0 0.0
2018-May-15 12:00N 39°16' W 076°35'0 0.0
2018-May-15 11:30N 39°16' W 076°35'0 0.0
2018-May-15 11:00N 39°16' W 076°35'0 0.0
2018-May-15 10:30N 39°16' W 076°35'0 0.0
2018-May-15 10:00N 39°16' W 076°35'0 0.0
2018-May-15 09:30N 39°16' W 076°35'0 0.0
2018-May-15 09:00N 39°16' W 076°35'0 0.0
2018-May-15 08:30N 39°16' W 076°35'0 0.0
2018-May-15 08:00N 39°16' W 076°35'0 0.0
2018-May-15 07:30N 39°16' W 076°35'0 0.0
2018-May-15 07:00N 39°16' W 076°35'0 0.0
2018-May-15 06:30N 39°16' W 076°35'0 0.0
2018-May-15 06:00N 39°16' W 076°35'0 0.0
2018-May-15 05:30N 39°16' W 076°35'0 0.0
2018-May-15 05:00N 39°16' W 076°35'0 0.0
2018-May-15 04:01N 39°16' W 076°35'0 0.5
2018-May-15 04:00N 39°16' W 076°35'0 0.0
2018-May-15 03:30N 39°16' W 076°35'0 0.0
2018-May-15 03:00N 39°16' W 076°35'0 0.0
2018-May-15 02:30N 39°16' W 076°35'0 0.0
2018-May-15 02:00N 39°16' W 076°35'1 1.4
2018-May-15 01:31N 39°16' W 076°34'2 4.7
2018-May-15 01:00N 39°13' W 076°34'1 1.3
2018-May-15 00:11N 39°13' W 076°35'0 0.3
2018-May-15 00:00N 39°13' W 076°35'3 5.7
2018-May-14 23:31N 39°16' W 076°34'1 1.4
2018-May-14 23:00N 39°16' W 076°35'0 0.0
2018-May-14 22:30N 39°16' W 076°35'0 0.0
2018-May-14 22:00N 39°16' W 076°35'0 0.0
2018-May-14 21:30N 39°16' W 076°35'0 0.0
2018-May-14 21:00N 39°16' W 076°35'0 0.0
2018-May-14 20:30N 39°16' W 076°35'0 0.0
2018-May-14 20:01N 39°16' W 076°35'2 4.1
2018-May-14 19:30N 39°14' W 076°33'2 3.0
2018-May-14 19:00N 39°13' W 076°35'1 1.3
2018-May-14 18:30N 39°13' W 076°34'3 6.0
2018-May-14 18:00N 39°16' W 076°35'0 0.0
2018-May-14 17:30N 39°16' W 076°35'0 0.0
2018-May-14 17:00N 39°16' W 076°35'0 0.0
2018-May-14 16:30N 39°16' W 076°35'0 0.0
2018-May-14 16:00N 39°16' W 076°35'0 0.0
2018-May-14 15:30N 39°16' W 076°35'1 2.3
2018-May-14 15:00N 39°15' W 076°34'0 0.4
2018-May-14 14:30N 39°15' W 076°34'1 2.1
2018-May-14 14:00N 39°16' W 076°35'0 0.2
2018-May-14 13:30N 39°16' W 076°35'0 0.0
2018-May-14 13:00N 39°16' W 076°35'0 0.4
2018-May-14 12:30N 39°16' W 076°35'3 5.3
2018-May-14 11:51N 39°13' W 076°35'0 0.7
2018-May-14 11:23N 39°13' W 076°35'1 3.3
2018-May-14 11:00N 39°13' W 076°33'1 2.3
2018-May-14 10:30N 39°14' W 076°33'0 0.4
2018-May-14 10:01N 39°14' W 076°33'2 3.1
2018-May-14 09:30N 39°13' W 076°32'0 0.0
2018-May-14 09:00N 39°13' W 076°32'0 0.0
2018-May-14 08:29N 39°13' W 076°32'0 0.0
2018-May-14 08:00N 39°13' W 076°32'1 1.0
2018-May-14 07:30N 39°13' W 076°32'4 7.7
2018-May-14 07:00N 39°16' W 076°35'0 0.0
2018-May-14 06:30N 39°16' W 076°35'0 0.0
2018-May-14 06:00N 39°16' W 076°35'0 0.0
2018-May-14 05:30N 39°16' W 076°35'0 0.0
2018-May-14 05:00N 39°16' W 076°35'0 0.0
2018-May-14 04:31N 39°16' W 076°35'0 0.0
2018-May-14 04:00N 39°16' W 076°35'0 0.0
2018-May-14 03:31N 39°16' W 076°35'0 0.0
2018-May-14 03:01N 39°16' W 076°35'0 0.0
2018-May-14 02:31N 39°16' W 076°35'0 0.0
2018-May-14 02:00N 39°16' W 076°35'0 0.0
2018-May-14 01:31N 39°16' W 076°35'0 0.0
2018-May-14 01:00N 39°16' W 076°35'0 0.0
2018-May-14 00:30N 39°16' W 076°35'0 0.0
2018-May-14 00:00N 39°16' W 076°35'0 0.0
2018-May-13 23:30N 39°16' W 076°35'0 0.0
2018-May-13 23:00N 39°16' W 076°35'0 0.0
2018-May-13 22:31N 39°16' W 076°35'0 0.0
2018-May-13 22:00N 39°16' W 076°35'0 0.0
2018-May-13 21:30N 39°16' W 076°35'0 0.0
2018-May-13 21:00N 39°16' W 076°35'1 1.7
2018-May-13 20:30N 39°15' W 076°34'0 0.9
2018-May-13 20:00N 39°15' W 076°35'1 2.4
2018-May-13 19:30N 39°16' W 076°35'0 0.0
2018-May-13 19:00N 39°16' W 076°35'0 0.0
2018-May-13 18:30N 39°16' W 076°35'0 0.0
2018-May-13 18:00N 39°16' W 076°35'0 0.0
2018-May-13 17:30N 39°16' W 076°35'0 0.0
2018-May-13 17:00N 39°16' W 076°35'0 0.0
2018-May-13 16:30N 39°16' W 076°35'0 0.0
2018-May-13 16:00N 39°16' W 076°35'0 0.0
2018-May-13 15:30N 39°16' W 076°35'0 0.0
2018-May-13 15:00N 39°16' W 076°35'0 0.0
2018-May-13 14:30N 39°16' W 076°35'0 0.0
2018-May-13 14:00N 39°16' W 076°35'0 0.0
2018-May-13 13:30N 39°16' W 076°35'0 0.0
2018-May-13 13:00N 39°16' W 076°35'0 0.0
2018-May-13 12:30N 39°16' W 076°35'0 0.0
2018-May-13 12:00N 39°16' W 076°35'1 2.5
2018-May-13 11:31N 39°15' W 076°34'2 3.3
2018-May-13 10:57N 39°14' W 076°32'1 1.1
2018-May-13 10:29N 39°15' W 076°32'0 0.9
2018-May-13 10:00N 39°15' W 076°33'0 0.2
2018-May-13 09:30N 39°15' W 076°33'1 1.4
2018-May-13 09:01N 39°16' W 076°33'1 2.7
2018-May-13 08:31N 39°15' W 076°35'0 1.0
2018-May-13 08:01N 39°15' W 076°34'2 4.3
2018-May-13 07:30N 39°14' W 076°32'2 3.4
2018-May-13 07:00N 39°15' W 076°33'0 0.8
2018-May-13 06:31N 39°16' W 076°33'0 0.0
2018-May-13 05:59N 39°16' W 076°33'0 0.0
2018-May-13 05:30N 39°16' W 076°33'0 0.0
2018-May-13 05:01N 39°16' W 076°33'0 0.0
2018-May-13 04:30N 39°16' W 076°33'0 0.0
2018-May-13 04:00N 39°16' W 076°33'0 0.0
2018-May-13 03:30N 39°16' W 076°33'0 0.7
2018-May-13 03:00N 39°15' W 076°33'0 0.9
2018-May-13 02:30N 39°15' W 076°33'0 0.0
2018-May-13 02:00N 39°15' W 076°33'0 0.1
2018-May-13 01:31N 39°15' W 076°33'0 0.0
2018-May-13 01:01N 39°15' W 076°33'2 4.0
2018-May-13 00:30N 39°16' W 076°35'0 0.0
2018-May-13 00:00N 39°16' W 076°35'0 0.0
2018-May-12 23:30N 39°16' W 076°35'0 0.0
2018-May-12 23:00N 39°16' W 076°35'0 0.0
2018-May-12 22:30N 39°16' W 076°35'0 0.0
2018-May-12 22:00N 39°16' W 076°35'0 0.0
2018-May-12 21:30N 39°16' W 076°35'0 0.0
2018-May-12 21:00N 39°16' W 076°35'0 0.0
2018-May-12 20:30N 39°16' W 076°35'0 0.0
2018-May-12 20:00N 39°16' W 076°35'0 0.0
2018-May-12 19:30N 39°16' W 076°35'0 0.0
2018-May-12 19:00N 39°16' W 076°35'0 0.0
2018-May-12 18:30N 39°16' W 076°35'0 0.0
2018-May-12 18:00N 39°16' W 076°35'0 0.0
2018-May-12 17:30N 39°16' W 076°35'0 0.0
2018-May-12 17:00N 39°16' W 076°35'0 0.0
2018-May-12 16:30N 39°16' W 076°35'0 0.0
2018-May-12 16:00N 39°16' W 076°35'0 0.0
2018-May-12 15:30N 39°16' W 076°35'0 0.0
2018-May-12 15:00N 39°16' W 076°35'0 0.0
2018-May-12 14:30N 39°16' W 076°35'0 0.0
2018-May-12 14:00N 39°16' W 076°35'0 0.0
2018-May-12 13:30N 39°16' W 076°35'1 2.3
2018-May-12 12:54N 39°15' W 076°33'0 0.8
2018-May-12 12:30N 39°15' W 076°33'0 0.1
2018-May-12 12:00N 39°15' W 076°33'2 3.0
2018-May-12 11:30N 39°16' W 076°35'0 0.0
2018-May-12 11:00N 39°16' W 076°35'0 0.0
2018-May-12 10:30N 39°16' W 076°35'0 0.0
2018-May-12 10:00N 39°16' W 076°35'0 0.0
2018-May-12 09:30N 39°16' W 076°35'0 0.0
2018-May-12 09:00N 39°16' W 076°35'0 0.2
2018-May-12 08:30N 39°16' W 076°35'0 0.2
2018-May-12 08:00N 39°16' W 076°35'0 0.0
2018-May-12 07:30N 39°16' W 076°35'0 0.0
2018-May-12 07:00N 39°16' W 076°35'0 0.0
2018-May-12 06:30N 39°16' W 076°35'0 0.0
2018-May-12 06:00N 39°16' W 076°35'0 0.0
2018-May-12 05:30N 39°16' W 076°35'2 3.1
2018-May-12 05:00N 39°15' W 076°33'1 1.3
2018-May-12 04:30N 39°15' W 076°33'2 3.3
2018-May-12 04:00N 39°13' W 076°32'2 3.7
2018-May-12 03:30N 39°15' W 076°34'2 3.5
2018-May-12 03:00N 39°16' W 076°35'0 0.0
2018-May-12 02:30N 39°16' W 076°35'0 0.0
2018-May-12 02:00N 39°16' W 076°35'0 0.0
2018-May-12 01:30N 39°16' W 076°35'0 0.0
2018-May-12 01:00N 39°16' W 076°35'0 0.0
2018-May-12 00:30N 39°16' W 076°35'0 0.0
2018-May-12 00:00N 39°16' W 076°35'0 0.0
2018-May-11 23:30N 39°16' W 076°35'0 0.9
2018-May-11 23:00N 39°16' W 076°34'1 1.1
2018-May-11 22:31N 39°15' W 076°34'1 1.4
2018-May-11 21:59N 39°15' W 076°34'2 4.5
2018-May-11 21:30N 39°13' W 076°32'3 6.0
2018-May-11 21:00N 39°15' W 076°35'0 0.9
2018-May-11 20:30N 39°15' W 076°34'1 1.9
2018-May-11 20:00N 39°15' W 076°33'2 3.6
2018-May-11 19:30N 39°16' W 076°35'0 0.0
2018-May-11 19:00N 39°16' W 076°35'0 0.0
2018-May-11 18:30N 39°16' W 076°35'0 0.0
2018-May-11 18:00N 39°16' W 076°35'0 0.0
2018-May-11 17:30N 39°16' W 076°35'0 0.0
2018-May-11 17:00N 39°16' W 076°35'0 0.0
2018-May-11 16:30N 39°16' W 076°35'0 0.0
2018-May-11 16:00N 39°16' W 076°35'0 0.0
2018-May-11 15:30N 39°16' W 076°35'0 0.0
2018-May-11 15:00N 39°16' W 076°35'2 4.4
2018-May-11 14:30N 39°14' W 076°33'2 3.0
2018-May-11 14:00N 39°15' W 076°35'0 0.6
2018-May-11 13:31N 39°15' W 076°35'2 3.7
2018-May-11 13:00N 39°14' W 076°33'2 3.6
2018-May-11 12:30N 39°15' W 076°34'1 1.7
2018-May-11 12:00N 39°16' W 076°35'0 0.0
2018-May-11 11:30N 39°16' W 076°35'0 0.0
2018-May-11 11:00N 39°16' W 076°35'0 0.0
2018-May-11 10:30N 39°16' W 076°35'0 0.0
2018-May-11 10:00N 39°16' W 076°35'0 0.0
2018-May-11 09:30N 39°16' W 076°35'0 0.0
2018-May-11 09:00N 39°16' W 076°35'0 0.0
2018-May-11 08:26N 39°16' W 076°35'0 0.0
2018-May-11 08:00N 39°16' W 076°35'0 0.0
2018-May-11 07:30N 39°16' W 076°35'0 0.0
2018-May-11 07:00N 39°16' W 076°35'0 0.0
2018-May-11 06:30N 39°16' W 076°35'0 0.0
2018-May-11 06:00N 39°16' W 076°35'0 0.0
2018-May-11 05:30N 39°16' W 076°35'0 0.0
2018-May-11 05:00N 39°16' W 076°35'0 0.0
2018-May-11 04:30N 39°16' W 076°35'0 0.0
2018-May-11 04:00N 39°16' W 076°35'0 0.0
2018-May-11 03:30N 39°16' W 076°35'0 0.0
2018-May-11 03:00N 39°16' W 076°35'0 0.0
2018-May-11 02:30N 39°16' W 076°35'0 0.0
2018-May-11 02:00N 39°16' W 076°35'0 0.0
2018-May-11 01:30N 39°16' W 076°35'0 0.0
2018-May-11 01:00N 39°16' W 076°35'0 0.0
2018-May-11 00:30N 39°16' W 076°35'0 0.0
2018-May-11 00:00N 39°16' W 076°35'0 0.0
2018-May-10 23:31N 39°16' W 076°35'2 3.1
2018-May-10 23:01N 39°15' W 076°33'1 1.7
2018-May-10 22:31N 39°15' W 076°34'1 1.6
2018-May-10 22:01N 39°16' W 076°35'0 0.0
2018-May-10 21:31N 39°16' W 076°35'0 0.0
2018-May-10 21:00N 39°16' W 076°35'0 0.0
2018-May-10 20:30N 39°16' W 076°35'1 1.5
2018-May-10 20:00N 39°17' W 076°36'0 0.1
2018-May-10 19:30N 39°17' W 076°36'1 1.6
2018-May-10 19:00N 39°16' W 076°35'0 0.0
2018-May-10 18:30N 39°16' W 076°35'0 0.0
2018-May-10 18:00N 39°16' W 076°35'0 0.0
2018-May-10 17:30N 39°16' W 076°35'0 0.0
2018-May-10 17:00N 39°16' W 076°35'0 0.0
2018-May-10 16:30N 39°16' W 076°35'0 0.0
2018-May-10 16:00N 39°16' W 076°35'0 0.0
2018-May-10 15:30N 39°16' W 076°35'0 0.0
2018-May-10 15:00N 39°16' W 076°35'0 0.0
2018-May-10 14:30N 39°16' W 076°35'0 0.0
2018-May-10 14:00N 39°16' W 076°35'0 0.0
2018-May-10 13:30N 39°16' W 076°35'0 0.0
2018-May-10 13:00N 39°16' W 076°35'0 0.0
2018-May-10 12:30N 39°16' W 076°35'2 5.0
2018-May-10 12:01N 39°14' W 076°33'  
Track history (hours):
 
Tides and Currents Weather Stations Pressure Air Temp Water Temp Dewpoint Dewpoint Depression Visibility Wind Speed Wind Dir Waves Ship Positions

Timothy Mcallister

Owner: McAllister Towing, Staten Island, NY. More information available from US FCC via Universal Licensing System and Coast Guard Vessel Documentation Center.

Last reported at 2018-May-20 11:31 UTC. Time now 2018-May-20 11:38 UTC.
Position N 39°15' W 076°34'.

Length 34 m; draft 3.8 m.

Type: Towing. MMSI: 367082130.

Date/timePositionNaut miles runAvg speedWind from/ knotsBaromVisibWave heightAir tempDewpointWater temp
2018-May-20 11:31N 39°15' W 076°34'1 1.5
2018-May-20 11:01N 39°15' W 076°35'0 0.9
2018-May-20 10:28N 39°15' W 076°34'2 3.3
2018-May-20 10:00N 39°15' W 076°32'0 0.0
2018-May-20 09:30N 39°15' W 076°32'0 0.0
2018-May-20 09:00N 39°15' W 076°32'0 0.0
2018-May-20 08:31N 39°15' W 076°32'0 0.0
2018-May-20 08:00N 39°15' W 076°32'0 0.0
2018-May-20 07:31N 39°15' W 076°32'0 0.0
2018-May-20 07:00N 39°15' W 076°32'0 0.0
2018-May-20 06:31N 39°15' W 076°32'0 0.0
2018-May-20 06:00N 39°15' W 076°32'0 0.0
2018-May-20 05:30N 39°15' W 076°32'0 0.0
2018-May-20 05:01N 39°15' W 076°32'0 0.0
2018-May-20 04:31N 39°15' W 076°32'0 0.0
2018-May-20 04:01N 39°15' W 076°32'0 0.5
2018-May-20 03:30N 39°15' W 076°32'4 7.9
2018-May-20 03:00N 39°12' W 076°29'1 2.0
2018-May-20 02:30N 39°13' W 076°29'0 0.0
2018-May-20 01:29N 39°13' W 076°29'0 0.0
2018-May-20 01:00N 39°13' W 076°29'0 0.0
2018-May-20 00:24N 39°13' W 076°29'2 4.2
2018-May-20 00:00N 39°12' W 076°31'2 4.4
2018-May-19 23:30N 39°14' W 076°32'1 2.0
2018-May-19 23:00N 39°14' W 076°32'1 1.6
2018-May-19 22:30N 39°13' W 076°32'0 0.0
2018-May-19 22:00N 39°13' W 076°32'0 0.0
2018-May-19 21:30N 39°13' W 076°32'0 0.1
2018-May-19 20:59N 39°13' W 076°32'0 0.1
2018-May-19 20:30N 39°13' W 076°32'2 3.8
2018-May-19 20:00N 39°13' W 076°35'0 0.4
2018-May-19 19:30N 39°13' W 076°35'1 1.8
2018-May-19 19:00N 39°13' W 076°34'1 2.3
2018-May-19 18:28N 39°14' W 076°33'1 1.2
2018-May-19 18:00N 39°15' W 076°32'0 0.0
2018-May-19 17:30N 39°15' W 076°32'0 0.0
2018-May-19 17:01N 39°15' W 076°32'0 0.0
2018-May-19 16:31N 39°15' W 076°32'0 0.0
2018-May-19 16:00N 39°15' W 076°32'0 0.0
2018-May-19 15:30N 39°15' W 076°32'0 0.7
2018-May-19 15:01N 39°14' W 076°32'1 2.9
2018-May-19 14:31N 39°13' W 076°32'4 7.0
2018-May-19 14:01N 39°16' W 076°35'0 0.8
2018-May-19 13:30N 39°16' W 076°35'0 0.0
2018-May-19 13:00N 39°16' W 076°35'0 0.0
2018-May-19 12:30N 39°16' W 076°35'0 0.0
2018-May-19 12:00N 39°16' W 076°35'0 0.0
2018-May-19 11:30N 39°16' W 076°35'2 3.6
2018-May-19 11:00N 39°15' W 076°33'0 0.1
2018-May-19 10:30N 39°15' W 076°33'1 2.0
2018-May-19 10:00N 39°14' W 076°33'1 2.7
2018-May-19 09:30N 39°13' W 076°32'2 4.0
2018-May-19 09:00N 39°15' W 076°33'1 1.6
2018-May-19 08:30N 39°15' W 076°34'0 0.0
2018-May-19 08:00N 39°15' W 076°34'0 0.0
2018-May-19 07:30N 39°15' W 076°34'1 1.3
2018-May-19 07:00N 39°15' W 076°35'0 0.5
2018-May-19 06:30N 39°15' W 076°35'0 0.1
2018-May-19 06:00N 39°15' W 076°35'0 0.1
2018-May-19 05:30N 39°15' W 076°35'0 0.1
2018-May-19 04:55N 39°15' W 076°35'0 0.0
2018-May-19 04:30N 39°15' W 076°35'0 0.0
2018-May-19 03:59N 39°15' W 076°35'0 0.0
2018-May-19 03:30N 39°15' W 076°35'0 0.0
2018-May-19 03:00N 39°15' W 076°35'0 0.1
2018-May-19 02:30N 39°15' W 076°35'1 2.2
2018-May-19 02:00N 39°16' W 076°35'0 0.0
2018-May-19 01:30N 39°16' W 076°35'0 0.0
2018-May-19 01:00N 39°16' W 076°35'0 0.0
2018-May-19 00:30N 39°16' W 076°35'0 0.0
2018-May-19 00:00N 39°16' W 076°35'0 0.0
2018-May-18 23:30N 39°16' W 076°35'0 0.0
2018-May-18 23:00N 39°16' W 076°35'0 0.0
2018-May-18 22:30N 39°16' W 076°35'0 0.0
2018-May-18 22:00N 39°16' W 076°35'0 0.6
2018-May-18 21:30N 39°16' W 076°35'1 2.4
2018-May-18 21:00N 39°15' W 076°33'0 0.0
2018-May-18 20:30N 39°15' W 076°33'0 0.8
2018-May-18 20:01N 39°15' W 076°33'2 4.0
2018-May-18 19:29N 39°13' W 076°35'0 0.4
2018-May-18 19:00N 39°13' W 076°34'2 4.1
2018-May-18 18:31N 39°13' W 076°32'1 1.0
2018-May-18 18:01N 39°14' W 076°32'2 3.4
2018-May-18 17:28N 39°15' W 076°33'2 3.6
2018-May-18 17:00N 39°16' W 076°35'0 0.1
2018-May-18 16:30N 39°16' W 076°35'0 0.0
2018-May-18 16:00N 39°16' W 076°35'0 0.0
2018-May-18 15:30N 39°16' W 076°35'0 0.0
2018-May-18 15:00N 39°16' W 076°35'0 0.0
2018-May-18 14:30N 39°16' W 076°35'0 0.0
2018-May-18 14:00N 39°16' W 076°35'0 0.0
2018-May-18 13:30N 39°16' W 076°35'0 0.0
2018-May-18 13:00N 39°16' W 076°35'0 0.0
2018-May-18 12:30N 39°16' W 076°35'0 0.0
2018-May-18 12:00N 39°16' W 076°35'0 0.0
2018-May-18 11:30N 39°16' W 076°35'0 0.3
2018-May-18 11:00N 39°16' W 076°35'2 4.9
2018-May-18 10:30N 39°15' W 076°32'0 0.9
2018-May-18 10:00N 39°14' W 076°32'1 1.4
2018-May-18 09:30N 39°13' W 076°32'2 4.9
2018-May-18 09:00N 39°15' W 076°34'0 0.0
2018-May-18 08:30N 39°15' W 076°34'1 1.2
2018-May-18 08:00N 39°15' W 076°34'0 0.3
2018-May-18 07:30N 39°15' W 076°34'0 0.5
2018-May-18 07:00N 39°15' W 076°34'1 2.4
2018-May-18 06:31N 39°14' W 076°33'2 3.3
2018-May-18 06:00N 39°13' W 076°32'0 0.6
2018-May-18 05:30N 39°13' W 076°32'4 7.6
2018-May-18 05:00N 39°16' W 076°35'0 0.0
2018-May-18 04:30N 39°16' W 076°35'0 0.0
2018-May-18 04:00N 39°16' W 076°35'0 0.0
2018-May-18 03:30N 39°16' W 076°35'0 0.0
2018-May-18 03:00N 39°16' W 076°35'0 0.0
2018-May-18 02:30N 39°16' W 076°35'0 0.0
2018-May-18 02:00N 39°16' W 076°35'0 0.0
2018-May-18 01:30N 39°16' W 076°35'0 0.0
2018-May-18 01:00N 39°16' W 076°35'0 0.0
2018-May-18 00:30N 39°16' W 076°35'0 0.0
2018-May-18 00:00N 39°16' W 076°35'0 0.0
2018-May-17 23:30N 39°16' W 076°35'0 0.0
2018-May-17 23:00N 39°16' W 076°35'0 0.0
2018-May-17 22:30N 39°16' W 076°35'0 0.0
2018-May-17 22:00N 39°16' W 076°35'2 4.4
2018-May-17 21:30N 39°15' W 076°33'1 1.8
2018-May-17 21:00N 39°14' W 076°32'1 2.0
2018-May-17 20:30N 39°14' W 076°32'2 3.7
2018-May-17 20:00N 39°15' W 076°34'1 2.7
2018-May-17 19:30N 39°16' W 076°35'0 0.0
2018-May-17 19:00N 39°16' W 076°35'0 0.0
2018-May-17 18:30N 39°16' W 076°35'0 0.0
2018-May-17 18:00N 39°16' W 076°35'0 0.0
2018-May-17 17:30N 39°16' W 076°35'0 0.0
2018-May-17 17:00N 39°16' W 076°35'0 0.0
2018-May-17 16:30N 39°16' W 076°35'0 0.0
2018-May-17 16:00N 39°16' W 076°35'1 1.1
2018-May-17 15:30N 39°16' W 076°34'2 4.3
2018-May-17 15:00N 39°14' W 076°34'0 0.0
2018-May-17 14:24N 39°14' W 076°34'0 0.0
2018-May-17 13:59N 39°14' W 076°34'0 0.0
2018-May-17 13:30N 39°14' W 076°34'0 0.0
2018-May-17 13:00N 39°14' W 076°34'2 4.1
2018-May-17 12:30N 39°16' W 076°34'1 1.4
2018-May-17 12:00N 39°16' W 076°35'0 0.0
2018-May-17 11:30N 39°16' W 076°35'0 0.0
2018-May-17 11:00N 39°16' W 076°35'0 0.0
2018-May-17 10:30N 39°16' W 076°35'0 0.0
2018-May-17 10:00N 39°16' W 076°35'0 0.0
2018-May-17 09:30N 39°16' W 076°35'0 0.0
2018-May-17 09:00N 39°16' W 076°35'0 0.0
2018-May-17 08:30N 39°16' W 076°35'0 0.0
2018-May-17 08:00N 39°16' W 076°35'0 0.0
2018-May-17 07:30N 39°16' W 076°35'0 0.0
2018-May-17 07:01N 39°16' W 076°35'0 0.0
2018-May-17 06:31N 39°16' W 076°35'0 0.0
2018-May-17 06:00N 39°16' W 076°35'0 0.0
2018-May-17 05:31N 39°16' W 076°35'0 0.0
2018-May-17 05:00N 39°16' W 076°35'0 0.0
2018-May-17 04:31N 39°16' W 076°35'0 0.0
2018-May-17 04:01N 39°16' W 076°35'0 0.0
2018-May-17 03:30N 39°16' W 076°35'0 0.0
2018-May-17 03:00N 39°16' W 076°35'0 0.0
2018-May-17 02:30N 39°16' W 076°35'0 0.0
2018-May-17 02:00N 39°16' W 076°35'0 0.0
2018-May-17 01:30N 39°16' W 076°35'0 0.0
2018-May-17 01:00N 39°16' W 076°35'0 0.0
2018-May-17 00:30N 39°16' W 076°35'0 0.0
2018-May-17 00:01N 39°16' W 076°35'2 3.8
2018-May-16 23:31N 39°15' W 076°33'3 5.4
2018-May-16 22:56N 39°13' W 076°30'0 0.3
2018-May-16 22:10N 39°13' W 076°30'1 6.9
2018-May-16 22:00N 39°13' W 076°32'4 8.1
2018-May-16 21:30N 39°16' W 076°35'0 0.0
2018-May-16 21:00N 39°16' W 076°35'0 0.0
2018-May-16 20:30N 39°16' W 076°35'0 0.0
2018-May-16 20:00N 39°16' W 076°35'0 0.0
2018-May-16 19:30N 39°16' W 076°35'0 0.0
2018-May-16 19:01N 39°16' W 076°35'0 0.0
2018-May-16 18:31N 39°16' W 076°35'0 0.0
2018-May-16 18:00N 39°16' W 076°35'0 0.0
2018-May-16 17:31N 39°16' W 076°35'0 0.0
2018-May-16 17:01N 39°16' W 076°35'0 0.0
2018-May-16 16:30N 39°16' W 076°35'0 0.0
2018-May-16 16:00N 39°16' W 076°35'0 0.0
2018-May-16 15:31N 39°16' W 076°35'0 0.0
2018-May-16 15:01N 39°16' W 076°35'0 0.0
2018-May-16 14:31N 39°16' W 076°35'0 0.0
2018-May-16 14:00N 39°16' W 076°35'0 0.0
2018-May-16 13:30N 39°16' W 076°35'0 0.0
2018-May-16 13:00N 39°16' W 076°35'0 0.0
2018-May-16 12:30N 39°16' W 076°35'0 0.0
2018-May-16 12:00N 39°16' W 076°35'0 0.0
2018-May-16 11:30N 39°16' W 076°35'0 0.0
2018-May-16 11:00N 39°16' W 076°35'1 1.6
2018-May-16 10:31N 39°15' W 076°34'3 5.4
2018-May-16 09:58N 39°13' W 076°35'0 0.7
2018-May-16 09:30N 39°13' W 076°35'2 4.4
2018-May-16 09:00N 39°13' W 076°32'4 7.3
2018-May-16 08:31N 39°16' W 076°35'0 0.0
2018-May-16 08:00N 39°16' W 076°35'0 0.0
2018-May-16 07:30N 39°16' W 076°35'0 0.3
2018-May-16 07:00N 39°16' W 076°35'0 0.3
2018-May-16 06:30N 39°16' W 076°35'0 0.0
2018-May-16 06:00N 39°16' W 076°35'0 0.0
2018-May-16 05:30N 39°16' W 076°35'0 0.0
2018-May-16 05:00N 39°16' W 076°35'0 0.0
2018-May-16 04:29N 39°16' W 076°35'0 0.0
2018-May-16 04:01N 39°16' W 076°35'0 0.0
2018-May-16 03:31N 39°16' W 076°35'0 0.0
2018-May-16 03:01N 39°16' W 076°35'0 0.0
2018-May-16 02:31N 39°16' W 076°35'0 0.0
2018-May-16 02:01N 39°16' W 076°35'0 0.0
2018-May-16 01:30N 39°16' W 076°35'0 0.0
2018-May-16 01:00N 39°16' W 076°35'0 0.0
2018-May-16 00:30N 39°16' W 076°35'0 0.0
2018-May-16 00:00N 39°16' W 076°35'0 0.0
2018-May-15 23:30N 39°16' W 076°35'0 0.0
2018-May-15 23:00N 39°16' W 076°35'0 0.0
2018-May-15 22:30N 39°16' W 076°35'0 0.0
2018-May-15 22:00N 39°16' W 076°35'0 0.9
2018-May-15 21:31N 39°16' W 076°35'0 0.2
2018-May-15 21:01N 39°17' W 076°35'2 3.5
2018-May-15 20:31N 39°15' W 076°34'1 1.7
2018-May-15 19:57N 39°15' W 076°33'2 4.7
2018-May-15 19:30N 39°16' W 076°35'0 0.0
2018-May-15 19:00N 39°16' W 076°35'0 0.0
2018-May-15 18:31N 39°16' W 076°35'0 0.0
2018-May-15 18:00N 39°16' W 076°35'0 0.0
2018-May-15 17:31N 39°16' W 076°35'0 0.0
2018-May-15 17:00N 39°16' W 076°35'0 0.0
2018-May-15 16:30N 39°16' W 076°35'1 2.2
2018-May-15 15:58N 39°15' W 076°35'0 0.8
2018-May-15 15:30N 39°15' W 076°34'2 2.8
2018-May-15 14:56N 39°15' W 076°32'1 1.3
2018-May-15 14:30N 39°15' W 076°32'2 4.6
2018-May-15 14:00N 39°16' W 076°35'0 0.2
2018-May-15 13:30N 39°16' W 076°35'0 0.0
2018-May-15 13:00N 39°16' W 076°35'0 0.0
2018-May-15 12:30N 39°16' W 076°35'0 0.0
2018-May-15 12:00N 39°16' W 076°35'0 0.0
2018-May-15 11:30N 39°16' W 076°35'0 0.0
2018-May-15 11:00N 39°16' W 076°35'0 0.0
2018-May-15 10:30N 39°16' W 076°35'0 0.0
2018-May-15 10:00N 39°16' W 076°35'0 0.0
2018-May-15 09:30N 39°16' W 076°35'0 0.0
2018-May-15 09:00N 39°16' W 076°35'0 0.0
2018-May-15 08:30N 39°16' W 076°35'0 0.0
2018-May-15 08:00N 39°16' W 076°35'0 0.0
2018-May-15 07:30N 39°16' W 076°35'0 0.0
2018-May-15 07:00N 39°16' W 076°35'0 0.0
2018-May-15 06:30N 39°16' W 076°35'0 0.0
2018-May-15 06:00N 39°16' W 076°35'0 0.0
2018-May-15 05:30N 39°16' W 076°35'0 0.0
2018-May-15 05:00N 39°16' W 076°35'0 0.0
2018-May-15 04:01N 39°16' W 076°35'0 0.5
2018-May-15 04:00N 39°16' W 076°35'0 0.0
2018-May-15 03:30N 39°16' W 076°35'0 0.0
2018-May-15 03:00N 39°16' W 076°35'0 0.0
2018-May-15 02:30N 39°16' W 076°35'0 0.0
2018-May-15 02:00N 39°16' W 076°35'1 1.4
2018-May-15 01:31N 39°16' W 076°34'2 4.7
2018-May-15 01:00N 39°13' W 076°34'1 1.3
2018-May-15 00:11N 39°13' W 076°35'0 0.3
2018-May-15 00:00N 39°13' W 076°35'3 5.7
2018-May-14 23:31N 39°16' W 076°34'1 1.4
2018-May-14 23:00N 39°16' W 076°35'0 0.0
2018-May-14 22:30N 39°16' W 076°35'0 0.0
2018-May-14 22:00N 39°16' W 076°35'0 0.0
2018-May-14 21:30N 39°16' W 076°35'0 0.0
2018-May-14 21:00N 39°16' W 076°35'0 0.0
2018-May-14 20:30N 39°16' W 076°35'0 0.0
2018-May-14 20:01N 39°16' W 076°35'2 4.1
2018-May-14 19:30N 39°14' W 076°33'2 3.0
2018-May-14 19:00N 39°13' W 076°35'1 1.3
2018-May-14 18:30N 39°13' W 076°34'3 6.0
2018-May-14 18:00N 39°16' W 076°35'0 0.0
2018-May-14 17:30N 39°16' W 076°35'0 0.0
2018-May-14 17:00N 39°16' W 076°35'0 0.0
2018-May-14 16:30N 39°16' W 076°35'0 0.0
2018-May-14 16:00N 39°16' W 076°35'0 0.0
2018-May-14 15:30N 39°16' W 076°35'1 2.3
2018-May-14 15:00N 39°15' W 076°34'0 0.4
2018-May-14 14:30N 39°15' W 076°34'1 2.1
2018-May-14 14:00N 39°16' W 076°35'0 0.2
2018-May-14 13:30N 39°16' W 076°35'0 0.0
2018-May-14 13:00N 39°16' W 076°35'0 0.4
2018-May-14 12:30N 39°16' W 076°35'3 5.3
2018-May-14 11:51N 39°13' W 076°35'0 0.7
2018-May-14 11:23N 39°13' W 076°35'1 3.3
2018-May-14 11:00N 39°13' W 076°33'1 2.3
2018-May-14 10:30N 39°14' W 076°33'0 0.4
2018-May-14 10:01N 39°14' W 076°33'2 3.1
2018-May-14 09:30N 39°13' W 076°32'0 0.0
2018-May-14 09:00N 39°13' W 076°32'0 0.0
2018-May-14 08:29N 39°13' W 076°32'0 0.0
2018-May-14 08:00N 39°13' W 076°32'1 1.0
2018-May-14 07:30N 39°13' W 076°32'4 7.7
2018-May-14 07:00N 39°16' W 076°35'0 0.0
2018-May-14 06:30N 39°16' W 076°35'0 0.0
2018-May-14 06:00N 39°16' W 076°35'0 0.0
2018-May-14 05:30N 39°16' W 076°35'0 0.0
2018-May-14 05:00N 39°16' W 076°35'0 0.0
2018-May-14 04:31N 39°16' W 076°35'0 0.0
2018-May-14 04:00N 39°16' W 076°35'0 0.0
2018-May-14 03:31N 39°16' W 076°35'0 0.0
2018-May-14 03:01N 39°16' W 076°35'0 0.0
2018-May-14 02:31N 39°16' W 076°35'0 0.0
2018-May-14 02:00N 39°16' W 076°35'0 0.0
2018-May-14 01:31N 39°16' W 076°35'0 0.0
2018-May-14 01:00N 39°16' W 076°35'0 0.0
2018-May-14 00:30N 39°16' W 076°35'0 0.0
2018-May-14 00:00N 39°16' W 076°35'0 0.0
2018-May-13 23:30N 39°16' W 076°35'0 0.0
2018-May-13 23:00N 39°16' W 076°35'0 0.0
2018-May-13 22:31N 39°16' W 076°35'0 0.0
2018-May-13 22:00N 39°16' W 076°35'0 0.0
2018-May-13 21:30N 39°16' W 076°35'0 0.0
2018-May-13 21:00N 39°16' W 076°35'1 1.7
2018-May-13 20:30N 39°15' W 076°34'0 0.9
2018-May-13 20:00N 39°15' W 076°35'1 2.4
2018-May-13 19:30N 39°16' W 076°35'0 0.0
2018-May-13 19:00N 39°16' W 076°35'0 0.0
2018-May-13 18:30N 39°16' W 076°35'0 0.0
2018-May-13 18:00N 39°16' W 076°35'0 0.0
2018-May-13 17:30N 39°16' W 076°35'0 0.0
2018-May-13 17:00N 39°16' W 076°35'0 0.0
2018-May-13 16:30N 39°16' W 076°35'0 0.0
2018-May-13 16:00N 39°16' W 076°35'0 0.0
2018-May-13 15:30N 39°16' W 076°35'0 0.0
2018-May-13 15:00N 39°16' W 076°35'0 0.0
2018-May-13 14:30N 39°16' W 076°35'0 0.0
2018-May-13 14:00N 39°16' W 076°35'0 0.0
2018-May-13 13:30N 39°16' W 076°35'0 0.0
2018-May-13 13:00N 39°16' W 076°35'0 0.0
2018-May-13 12:30N 39°16' W 076°35'0 0.0
2018-May-13 12:00N 39°16' W 076°35'1 2.5
2018-May-13 11:31N 39°15' W 076°34'2 3.3
2018-May-13 10:57N 39°14' W 076°32'1 1.1
2018-May-13 10:29N 39°15' W 076°32'0 0.9
2018-May-13 10:00N 39°15' W 076°33'0 0.2
2018-May-13 09:30N 39°15' W 076°33'1 1.4
2018-May-13 09:01N 39°16' W 076°33'1 2.7
2018-May-13 08:31N 39°15' W 076°35'0 1.0
2018-May-13 08:01N 39°15' W 076°34'2 4.3
2018-May-13 07:30N 39°14' W 076°32'2 3.4
2018-May-13 07:00N 39°15' W 076°33'0 0.8
2018-May-13 06:31N 39°16' W 076°33'0 0.0
2018-May-13 05:59N 39°16' W 076°33'0 0.0
2018-May-13 05:30N 39°16' W 076°33'0 0.0
2018-May-13 05:01N 39°16' W 076°33'0 0.0
2018-May-13 04:30N 39°16' W 076°33'0 0.0
2018-May-13 04:00N 39°16' W 076°33'0 0.0
2018-May-13 03:30N 39°16' W 076°33'0 0.7
2018-May-13 03:00N 39°15' W 076°33'0 0.9
2018-May-13 02:30N 39°15' W 076°33'0 0.0
2018-May-13 02:00N 39°15' W 076°33'0 0.1
2018-May-13 01:31N 39°15' W 076°33'0 0.0
2018-May-13 01:01N 39°15' W 076°33'2 4.0
2018-May-13 00:30N 39°16' W 076°35'0 0.0
2018-May-13 00:00N 39°16' W 076°35'0 0.0
2018-May-12 23:30N 39°16' W 076°35'0 0.0
2018-May-12 23:00N 39°16' W 076°35'0 0.0
2018-May-12 22:30N 39°16' W 076°35'0 0.0
2018-May-12 22:00N 39°16' W 076°35'0 0.0
2018-May-12 21:30N 39°16' W 076°35'0 0.0
2018-May-12 21:00N 39°16' W 076°35'0 0.0
2018-May-12 20:30N 39°16' W 076°35'0 0.0
2018-May-12 20:00N 39°16' W 076°35'0 0.0
2018-May-12 19:30N 39°16' W 076°35'0 0.0
2018-May-12 19:00N 39°16' W 076°35'0 0.0
2018-May-12 18:30N 39°16' W 076°35'0 0.0
2018-May-12 18:00N 39°16' W 076°35'0 0.0
2018-May-12 17:30N 39°16' W 076°35'0 0.0
2018-May-12 17:00N 39°16' W 076°35'0 0.0
2018-May-12 16:30N 39°16' W 076°35'0 0.0
2018-May-12 16:00N 39°16' W 076°35'0 0.0
2018-May-12 15:30N 39°16' W 076°35'0 0.0
2018-May-12 15:00N 39°16' W 076°35'0 0.0
2018-May-12 14:30N 39°16' W 076°35'0 0.0
2018-May-12 14:00N 39°16' W 076°35'0 0.0
2018-May-12 13:30N 39°16' W 076°35'1 2.3
2018-May-12 12:54N 39°15' W 076°33'0 0.8
2018-May-12 12:30N 39°15' W 076°33'0 0.1
2018-May-12 12:00N 39°15' W 076°33'2 3.0
2018-May-12 11:30N 39°16' W 076°35'0 0.0
2018-May-12 11:00N 39°16' W 076°35'0 0.0
2018-May-12 10:30N 39°16' W 076°35'0 0.0
2018-May-12 10:00N 39°16' W 076°35'0 0.0
2018-May-12 09:30N 39°16' W 076°35'0 0.0
2018-May-12 09:00N 39°16' W 076°35'0 0.2
2018-May-12 08:30N 39°16' W 076°35'0 0.2
2018-May-12 08:00N 39°16' W 076°35'0 0.0
2018-May-12 07:30N 39°16' W 076°35'0 0.0
2018-May-12 07:00N 39°16' W 076°35'0 0.0
2018-May-12 06:30N 39°16' W 076°35'0 0.0
2018-May-12 06:00N 39°16' W 076°35'0 0.0
2018-May-12 05:30N 39°16' W 076°35'2 3.1
2018-May-12 05:00N 39°15' W 076°33'1 1.3
2018-May-12 04:30N 39°15' W 076°33'2 3.3
2018-May-12 04:00N 39°13' W 076°32'2 3.7
2018-May-12 03:30N 39°15' W 076°34'2 3.5
2018-May-12 03:00N 39°16' W 076°35'0 0.0
2018-May-12 02:30N 39°16' W 076°35'0 0.0
2018-May-12 02:00N 39°16' W 076°35'0 0.0
2018-May-12 01:30N 39°16' W 076°35'0 0.0
2018-May-12 01:00N 39°16' W 076°35'0 0.0
2018-May-12 00:30N 39°16' W 076°35'0 0.0
2018-May-12 00:00N 39°16' W 076°35'0 0.0
2018-May-11 23:30N 39°16' W 076°35'0 0.9
2018-May-11 23:00N 39°16' W 076°34'1 1.1
2018-May-11 22:31N 39°15' W 076°34'1 1.4
2018-May-11 21:59N 39°15' W 076°34'2 4.5
2018-May-11 21:30N 39°13' W 076°32'3 6.0
2018-May-11 21:00N 39°15' W 076°35'0 0.9
2018-May-11 20:30N 39°15' W 076°34'1 1.9
2018-May-11 20:00N 39°15' W 076°33'2 3.6
2018-May-11 19:30N 39°16' W 076°35'0 0.0
2018-May-11 19:00N 39°16' W 076°35'0 0.0
2018-May-11 18:30N 39°16' W 076°35'0 0.0
2018-May-11 18:00N 39°16' W 076°35'0 0.0
2018-May-11 17:30N 39°16' W 076°35'0 0.0
2018-May-11 17:00N 39°16' W 076°35'0 0.0
2018-May-11 16:30N 39°16' W 076°35'0 0.0
2018-May-11 16:00N 39°16' W 076°35'0 0.0
2018-May-11 15:30N 39°16' W 076°35'0 0.0
2018-May-11 15:00N 39°16' W 076°35'2 4.4
2018-May-11 14:30N 39°14' W 076°33'2 3.0
2018-May-11 14:00N 39°15' W 076°35'0 0.6
2018-May-11 13:31N 39°15' W 076°35'2 3.7
2018-May-11 13:00N 39°14' W 076°33'2 3.6
2018-May-11 12:30N 39°15' W 076°34'1 1.7
2018-May-11 12:00N 39°16' W 076°35'0 0.0
2018-May-11 11:30N 39°16' W 076°35'0 0.0
2018-May-11 11:00N 39°16' W 076°35'0 0.0
2018-May-11 10:30N 39°16' W 076°35'0 0.0
2018-May-11 10:00N 39°16' W 076°35'0 0.0
2018-May-11 09:30N 39°16' W 076°35'0 0.0
2018-May-11 09:00N 39°16' W 076°35'0 0.0
2018-May-11 08:26N 39°16' W 076°35'0 0.0
2018-May-11 08:00N 39°16' W 076°35'0 0.0
2018-May-11 07:30N 39°16' W 076°35'0 0.0
2018-May-11 07:00N 39°16' W 076°35'0 0.0
2018-May-11 06:30N 39°16' W 076°35'0 0.0
2018-May-11 06:00N 39°16' W 076°35'0 0.0
2018-May-11 05:30N 39°16' W 076°35'0 0.0
2018-May-11 05:00N 39°16' W 076°35'0 0.0
2018-May-11 04:30N 39°16' W 076°35'0 0.0
2018-May-11 04:00N 39°16' W 076°35'0 0.0
2018-May-11 03:30N 39°16' W 076°35'0 0.0
2018-May-11 03:00N 39°16' W 076°35'0 0.0
2018-May-11 02:30N 39°16' W 076°35'0 0.0
2018-May-11 02:00N 39°16' W 076°35'0 0.0
2018-May-11 01:30N 39°16' W 076°35'0 0.0
2018-May-11 01:00N 39°16' W 076°35'0 0.0
2018-May-11 00:30N 39°16' W 076°35'0 0.0
2018-May-11 00:00N 39°16' W 076°35'0 0.0
2018-May-10 23:31N 39°16' W 076°35'2 3.1
2018-May-10 23:01N 39°15' W 076°33'1 1.7
2018-May-10 22:31N 39°15' W 076°34'1 1.6
2018-May-10 22:01N 39°16' W 076°35'0 0.0
2018-May-10 21:31N 39°16' W 076°35'0 0.0
2018-May-10 21:00N 39°16' W 076°35'0 0.0
2018-May-10 20:30N 39°16' W 076°35'1 1.5
2018-May-10 20:00N 39°17' W 076°36'0 0.1
2018-May-10 19:30N 39°17' W 076°36'1 1.6
2018-May-10 19:00N 39°16' W 076°35'0 0.0
2018-May-10 18:30N 39°16' W 076°35'0 0.0
2018-May-10 18:00N 39°16' W 076°35'0 0.0
2018-May-10 17:30N 39°16' W 076°35'0 0.0
2018-May-10 17:00N 39°16' W 076°35'0 0.0
2018-May-10 16:30N 39°16' W 076°35'0 0.0
2018-May-10 16:00N 39°16' W 076°35'0 0.0
2018-May-10 15:30N 39°16' W 076°35'0 0.0
2018-May-10 15:00N 39°16' W 076°35'0 0.0
2018-May-10 14:30N 39°16' W 076°35'0 0.0
2018-May-10 14:00N 39°16' W 076°35'0 0.0
2018-May-10 13:30N 39°16' W 076°35'0 0.0
2018-May-10 13:00N 39°16' W 076°35'0 0.0
2018-May-10 12:30N 39°16' W 076°35'2 5.0
2018-May-10 12:01N 39°14' W 076°33'  

Dump ship's entire track history